עמוד ראשי
METAR-TAF:

METAR-TAF

שדות תעופה :

Leticia, קולומביה

קו רוחב: 04-10S, קו אורך: 069-57W, גובה: 84מטר

תצפית מזג אוויר נוכחית

הדו"ח נערך לפני 12דקות, בשעה 12:00 UTC
רוח 2קשר עם כיוונים משתנים
טמפרטורת 26 צלסיוס
לחות 94%
לחץ 1011 hPa
ראות: 1500מטר
מעונן בגובה 400רגל
אד,

METAR: SKLT 121200Z VRB02KT 1500 BR OVC004 26/25 Q1011

זמן: 07:12 (12:12 UTC)

תחזית

הדו"ח נערך לפני 1 שעות ו 42דקות, בשעה 10:30 UTC
תחזית בתוקף מ 12 ב 12 UTC עד 13 ב 12 UTC
רוח 2קשר עם כיוונים משתנים
ראות 10 קילומטר או יותר
עננים פזורים בגובה 1500רגל
זמנית מ -
13 ב 02 UTC עד 13 ב 06 UTC
ראות: 4000מטר
עננים פזורים בגובה 1200רגל , קומולונימבוס.
טפטוף, גשם,

TAF: SKLT 121030Z 1212/1312 VRB02KT 9999 SCT015 TEMPO 1302/1306 4000 DZRA SCT012CB TX30/1219Z TN24/1310Z

תצפיות ותחזיות מזג אוויר לגבי יותר מ- 4,000 שדות תעופה ברחבי העולם. דוחות METAR ו- TAF.

התחנות הזמינות מסומנות בנקודות צהובות ואדומות על גבי המפה.

העבר את העכבר לנקודה הצבעונית על מנת לראות את שם התחנה.

לאחר מכן, לחץ כדי לראות את תוכן ואת תחזיות מזג האוויר.

כדי לשנות את המפה: לחץ על הכפתורים הירוקים עם הפלוס השחור כדי להתקרב; על הכפתור הירוק עם המקף כדי להתרחק; או בחיצים הירוקים למפות סמוכות.


METAR-TAF: